createdAt,value
2024-03-08T00:00:27.687Z,0.00
2024-03-08T00:01:26.444Z,0.00
2024-03-08T00:02:31.127Z,0.00
2024-03-08T00:03:26.500Z,0.00
2024-03-08T00:04:26.472Z,0.00
2024-03-08T00:05:26.461Z,0.00
2024-03-08T00:06:27.627Z,0.00
2024-03-08T00:07:26.367Z,0.00
2024-03-08T00:08:27.596Z,0.00
2024-03-08T00:09:26.331Z,0.00
2024-03-08T00:10:28.470Z,0.00
2024-03-08T00:11:26.399Z,0.00
2024-03-08T00:12:26.484Z,0.00
2024-03-08T00:13:26.336Z,0.00
2024-03-08T00:14:27.132Z,0.00
2024-03-08T00:15:26.264Z,0.00
2024-03-08T00:16:26.507Z,0.00
2024-03-08T00:17:26.306Z,0.00
2024-03-08T00:18:26.614Z,0.00
2024-03-08T00:19:26.266Z,0.00
2024-03-08T00:20:26.433Z,0.00
2024-03-08T00:21:26.224Z,0.00
2024-03-08T00:22:26.437Z,0.00
2024-03-08T00:23:26.182Z,0.00
2024-03-08T00:24:26.374Z,0.00
2024-03-08T00:25:26.144Z,0.00
2024-03-08T00:26:26.419Z,0.00
2024-03-08T00:27:26.164Z,0.00
2024-03-08T00:28:26.277Z,0.00
2024-03-08T00:29:26.141Z,0.00
2024-03-08T00:30:26.164Z,0.00
2024-03-08T00:31:26.074Z,0.00
2024-03-08T00:32:26.299Z,0.00
2024-03-08T00:33:26.201Z,0.00
2024-03-08T00:34:26.143Z,0.00
2024-03-08T00:35:26.159Z,0.00
2024-03-08T00:36:26.176Z,0.00
2024-03-08T00:37:25.993Z,0.00
2024-03-08T00:38:26.147Z,0.00
2024-03-08T00:39:26.001Z,0.00
2024-03-08T00:40:27.018Z,0.00
2024-03-08T00:41:25.982Z,0.00
2024-03-08T00:42:26.209Z,0.00
2024-03-08T00:43:25.940Z,0.00
2024-03-08T00:44:27.048Z,0.00
2024-03-08T00:45:25.912Z,0.00
2024-03-08T00:46:25.932Z,0.00
2024-03-08T00:47:25.965Z,0.00
2024-03-08T00:48:27.116Z,0.00
2024-03-08T00:49:25.913Z,0.00
2024-03-08T00:50:26.003Z,0.00
2024-03-08T00:51:25.832Z,0.00
2024-03-08T00:52:25.871Z,0.00
2024-03-08T00:53:25.911Z,0.00
2024-03-08T00:54:25.985Z,0.00
2024-03-08T00:55:25.821Z,0.00
2024-03-08T00:56:46.924Z,0.00
2024-03-08T00:57:25.725Z,0.00
2024-03-08T00:58:25.902Z,0.00
2024-03-08T00:59:25.763Z,0.00
2024-03-08T01:00:25.877Z,0.00
2024-03-08T01:01:25.695Z,0.00
2024-03-08T01:02:25.875Z,0.00
2024-03-08T01:03:25.670Z,0.00
2024-03-08T01:04:25.750Z,0.00
2024-03-08T01:05:25.787Z,0.00
2024-03-08T01:06:25.739Z,0.00
2024-03-08T01:07:25.607Z,0.00
2024-03-08T01:08:25.737Z,0.00
2024-03-08T01:09:25.584Z,0.00
2024-03-08T01:10:25.629Z,0.00
2024-03-08T01:11:25.669Z,0.00
2024-03-08T01:12:25.591Z,0.00
2024-03-08T01:13:25.529Z,0.00
2024-03-08T01:14:25.746Z,0.00
2024-03-08T01:15:25.499Z,0.00
2024-03-08T01:16:26.536Z,0.00
2024-03-08T01:17:25.566Z,0.00
2024-03-08T01:18:25.818Z,0.00
2024-03-08T01:19:25.817Z,0.00
2024-03-08T01:20:25.534Z,0.00
2024-03-08T01:21:25.429Z,0.00
2024-03-08T01:22:25.641Z,0.00
2024-03-08T01:23:25.423Z,0.00
2024-03-08T01:24:25.559Z,0.00
2024-03-08T01:25:25.387Z,0.00
2024-03-08T01:26:25.377Z,0.00
2024-03-08T01:27:25.335Z,0.00
2024-03-08T01:28:25.452Z,0.00
2024-03-08T01:29:25.322Z,0.00
2024-03-08T01:30:25.489Z,0.00
2024-03-08T01:31:25.289Z,0.00
2024-03-08T01:32:25.337Z,0.00
2024-03-08T01:33:25.757Z,0.00
2024-03-08T01:34:26.434Z,0.00
2024-03-08T01:35:25.238Z,0.00
2024-03-08T01:36:25.343Z,0.00
2024-03-08T01:37:25.317Z,0.00
2024-03-08T01:38:26.057Z,0.00
2024-03-08T01:39:25.247Z,0.00
2024-03-08T01:40:25.400Z,0.00
2024-03-08T01:41:25.252Z,0.00
2024-03-08T01:42:25.316Z,0.00
2024-03-08T01:43:25.214Z,0.00
2024-03-08T01:44:25.295Z,0.00
2024-03-08T01:45:25.216Z,0.00
2024-03-08T01:46:25.338Z,0.00
2024-03-08T01:47:25.420Z,0.00
2024-03-08T01:48:25.622Z,0.00
2024-03-08T01:49:25.100Z,0.00
2024-03-08T01:50:25.302Z,0.00
2024-03-08T01:51:25.261Z,0.00
2024-03-08T01:52:25.249Z,0.00
2024-03-08T01:53:25.066Z,0.00
2024-03-08T01:54:24.989Z,0.00
2024-03-08T01:55:25.256Z,0.00
2024-03-08T01:56:24.999Z,0.00
2024-03-08T01:57:25.170Z,0.00
2024-03-08T01:58:24.965Z,0.00
2024-03-08T01:59:25.000Z,0.00
2024-03-08T02:00:24.972Z,0.00
2024-03-08T02:01:25.366Z,0.00
2024-03-08T02:02:24.930Z,0.00
2024-03-08T02:03:25.078Z,0.00
2024-03-08T02:04:24.877Z,0.00
2024-03-08T02:06:23.773Z,0.00
2024-03-08T02:07:24.577Z,0.00
2024-03-08T02:08:24.499Z,0.00
2024-03-08T02:09:24.597Z,0.00
2024-03-08T02:10:24.471Z,0.00
2024-03-08T02:11:24.692Z,0.00
2024-03-08T02:12:24.532Z,0.00
2024-03-08T02:13:24.477Z,0.00
2024-03-08T02:14:24.490Z,0.00
2024-03-08T02:15:24.479Z,0.00
2024-03-08T02:16:24.415Z,0.00
2024-03-08T02:17:24.564Z,0.00
2024-03-08T02:18:24.678Z,0.00
2024-03-08T02:19:24.398Z,0.00
2024-03-08T02:20:24.390Z,0.00
2024-03-08T02:21:24.525Z,0.00
2024-03-08T02:22:25.019Z,0.00
2024-03-08T02:23:24.444Z,0.00
2024-03-08T02:24:24.314Z,0.00
2024-03-08T02:25:24.377Z,0.00
2024-03-08T02:26:24.299Z,0.00
2024-03-08T02:27:24.441Z,0.00
2024-03-08T02:28:24.244Z,0.00
2024-03-08T02:29:24.386Z,0.00
2024-03-08T02:30:24.248Z,0.00
2024-03-08T02:31:24.414Z,0.00
2024-03-08T02:32:24.195Z,0.00
2024-03-08T02:33:24.503Z,0.00
2024-03-08T02:34:24.185Z,0.00
2024-03-08T02:35:24.319Z,0.00
2024-03-08T02:36:24.239Z,0.00
2024-03-08T02:37:24.399Z,0.00
2024-03-08T02:38:24.109Z,0.00
2024-03-08T02:39:24.495Z,0.00
2024-03-08T02:40:24.071Z,0.00
2024-03-08T02:41:26.039Z,0.00
2024-03-08T02:42:24.076Z,0.00
2024-03-08T02:43:24.498Z,0.00
2024-03-08T02:44:24.023Z,0.00
2024-03-08T02:45:24.248Z,0.00
2024-03-08T02:46:23.999Z,0.00
2024-03-08T02:47:27.028Z,0.00
2024-03-08T02:48:24.431Z,0.00
2024-03-08T02:49:24.224Z,0.00
2024-03-08T02:50:23.945Z,0.00
2024-03-08T02:51:50.058Z,0.00
2024-03-08T02:52:23.952Z,0.00
2024-03-08T02:53:24.114Z,0.00
2024-03-08T02:54:23.929Z,0.00
2024-03-08T02:55:23.989Z,0.00
2024-03-08T02:56:23.910Z,0.00
2024-03-08T02:57:24.120Z,0.00
2024-03-08T02:58:23.986Z,0.00
2024-03-08T02:59:23.952Z,0.00
2024-03-08T03:00:23.847Z,0.00
2024-03-08T03:01:24.116Z,0.00
2024-03-08T03:02:23.817Z,0.00
2024-03-08T03:03:23.952Z,0.00
2024-03-08T03:04:23.865Z,0.00
2024-03-08T03:05:23.997Z,0.00
2024-03-08T03:06:24.050Z,0.00
2024-03-08T03:07:23.739Z,0.00
2024-03-08T03:08:24.003Z,0.00
2024-03-08T03:09:23.729Z,0.00
2024-03-08T03:10:23.854Z,0.00
2024-03-08T03:11:23.995Z,0.00
2024-03-08T03:12:23.719Z,0.00
2024-03-08T03:13:23.917Z,0.00
2024-03-08T03:14:23.979Z,0.00
2024-03-08T03:15:27.206Z,0.00
2024-03-08T03:16:23.660Z,0.00
2024-03-08T03:17:23.773Z,0.00
2024-03-08T03:18:23.661Z,0.00
2024-03-08T03:19:23.783Z,0.00
2024-03-08T03:20:23.631Z,0.00
2024-03-08T03:21:24.885Z,0.00
2024-03-08T03:22:23.576Z,0.00
2024-03-08T03:23:25.351Z,0.00
2024-03-08T03:24:23.566Z,0.00
2024-03-08T03:25:23.751Z,0.00
2024-03-08T03:26:23.552Z,0.00
2024-03-08T03:27:23.610Z,0.00
2024-03-08T03:28:23.543Z,0.00
2024-03-08T03:29:23.729Z,0.00
2024-03-08T03:30:23.539Z,0.00
2024-03-08T03:31:23.673Z,0.00
2024-03-08T03:32:23.479Z,0.00
2024-03-08T03:33:23.849Z,0.00
2024-03-08T03:34:23.465Z,0.00
2024-03-08T03:35:25.732Z,0.00
2024-03-08T03:36:23.476Z,0.00
2024-03-08T03:37:23.571Z,0.00
2024-03-08T03:38:23.424Z,0.00
2024-03-08T03:39:23.534Z,0.00
2024-03-08T03:40:23.367Z,0.00
2024-03-08T03:41:23.731Z,0.00
2024-03-08T03:42:23.324Z,0.00
2024-03-08T03:43:23.539Z,0.00
2024-03-08T03:44:23.285Z,0.00
2024-03-08T03:45:23.549Z,0.00
2024-03-08T03:46:23.304Z,0.00
2024-03-08T03:47:23.441Z,0.00
2024-03-08T03:48:23.320Z,0.00
2024-03-08T03:49:23.930Z,0.00
2024-03-08T03:50:23.229Z,0.00
2024-03-08T03:51:23.474Z,0.00
2024-03-08T03:52:23.213Z,0.00
2024-03-08T03:53:23.389Z,0.00
2024-03-08T03:54:23.237Z,0.00
2024-03-08T03:55:23.284Z,0.00
2024-03-08T03:56:23.154Z,0.00
2024-03-08T03:57:23.300Z,0.00
2024-03-08T03:58:23.169Z,0.00
2024-03-08T03:59:23.371Z,0.00
2024-03-08T04:00:23.137Z,0.00
2024-03-08T04:01:23.357Z,0.00
2024-03-08T04:02:23.099Z,0.00
2024-03-08T04:03:23.240Z,0.00
2024-03-08T04:04:23.072Z,0.00
2024-03-08T04:05:23.370Z,0.00
2024-03-08T04:06:23.130Z,0.00
2024-03-08T04:07:23.266Z,0.00
2024-03-08T04:08:23.014Z,0.00
2024-03-08T04:09:23.083Z,0.00
2024-03-08T04:10:23.118Z,0.00
2024-03-08T04:11:23.206Z,0.00
2024-03-08T04:12:23.010Z,0.00
2024-03-08T04:13:24.159Z,0.00
2024-03-08T04:14:22.944Z,0.00
2024-03-08T04:15:23.043Z,0.00
2024-03-08T04:16:22.921Z,0.00
2024-03-08T04:17:23.151Z,0.00
2024-03-08T04:18:22.992Z,0.00
2024-03-08T04:19:23.178Z,0.00
2024-03-08T04:20:23.188Z,0.00
2024-03-08T04:21:22.984Z,0.00
2024-03-08T04:22:22.846Z,0.00
2024-03-08T04:23:23.017Z,0.00
2024-03-08T04:24:22.950Z,0.00
2024-03-08T04:25:23.006Z,0.00
2024-03-08T04:26:22.924Z,0.00
2024-03-08T04:27:22.764Z,0.00
2024-03-08T04:28:22.931Z,0.00
2024-03-08T04:29:22.769Z,0.00
2024-03-08T04:30:23.143Z,0.00
2024-03-08T04:31:22.876Z,0.00
2024-03-08T04:32:22.735Z,0.00
2024-03-08T04:33:23.022Z,0.00
2024-03-08T04:34:22.720Z,0.00
2024-03-08T04:35:22.875Z,0.00
2024-03-08T04:36:22.666Z,0.00
2024-03-08T04:37:22.897Z,0.00
2024-03-08T04:38:22.632Z,0.00
2024-03-08T04:39:22.829Z,0.00
2024-03-08T04:40:22.634Z,0.00
2024-03-08T04:41:22.816Z,0.00
2024-03-08T04:42:22.662Z,0.00
2024-03-08T04:43:22.709Z,0.00
2024-03-08T04:44:22.614Z,0.00
2024-03-08T04:45:22.942Z,0.00
2024-03-08T04:46:22.595Z,0.00
2024-03-08T04:47:22.903Z,0.00
2024-03-08T04:48:22.623Z,0.00
2024-03-08T04:49:22.667Z,0.00
2024-03-08T04:50:22.514Z,0.00
2024-03-08T04:51:22.779Z,0.00
2024-03-08T04:52:22.448Z,0.00
2024-03-08T04:53:22.619Z,0.00
2024-03-08T04:54:22.452Z,0.00
2024-03-08T04:55:22.770Z,0.00
2024-03-08T04:56:22.414Z,0.00
2024-03-08T04:57:22.735Z,0.00
2024-03-08T04:58:22.394Z,0.00
2024-03-08T04:59:22.541Z,0.00
2024-03-08T05:00:22.432Z,0.00
2024-03-08T05:01:22.757Z,0.00
2024-03-08T05:02:22.346Z,0.00
2024-03-08T05:03:44.567Z,0.00
2024-03-08T05:04:22.339Z,0.00
2024-03-08T05:05:22.574Z,0.00
2024-03-08T05:06:22.268Z,0.00
2024-03-08T05:07:23.472Z,0.00
2024-03-08T05:08:22.289Z,0.00
2024-03-08T05:09:23.418Z,0.00
2024-03-08T05:10:22.230Z,0.00
2024-03-08T05:11:22.621Z,0.00
2024-03-08T05:12:22.262Z,0.00
2024-03-08T05:13:22.321Z,0.00
2024-03-08T05:14:22.188Z,0.00
2024-03-08T05:15:22.293Z,0.00
2024-03-08T05:16:22.138Z,0.00
2024-03-08T05:17:23.314Z,0.00
2024-03-08T05:18:22.307Z,0.00
2024-03-08T05:19:25.157Z,0.00
2024-03-08T05:20:22.124Z,0.00
2024-03-08T05:21:22.174Z,0.00
2024-03-08T05:22:22.061Z,0.00
2024-03-08T05:23:23.238Z,0.00
2024-03-08T05:24:22.127Z,0.00
2024-03-08T05:25:22.449Z,0.00
2024-03-08T05:26:43.267Z,0.00
2024-03-08T05:27:24.053Z,0.00
2024-03-08T05:28:24.089Z,0.00
2024-03-08T05:29:22.004Z,0.00
2024-03-08T05:30:23.311Z,0.00
2024-03-08T05:31:22.039Z,0.00
2024-03-08T05:32:23.179Z,0.00
2024-03-08T05:33:23.071Z,0.00
2024-03-08T05:34:22.176Z,0.00
2024-03-08T05:35:22.156Z,0.00
2024-03-08T05:36:21.937Z,0.00
2024-03-08T05:37:23.114Z,0.00
2024-03-08T05:38:21.907Z,0.00
2024-03-08T05:39:22.358Z,0.00
2024-03-08T05:40:23.531Z,0.00
2024-03-08T05:41:21.892Z,0.00
2024-03-08T05:42:22.056Z,0.00
2024-03-08T05:43:21.878Z,0.00
2024-03-08T05:44:22.126Z,0.00
2024-03-08T05:45:21.852Z,0.00
2024-03-08T05:46:21.945Z,0.00
2024-03-08T05:47:24.428Z,0.00
2024-03-08T05:48:23.181Z,5.62
2024-03-08T05:49:21.710Z,5.62
2024-03-08T05:50:21.776Z,5.62
2024-03-08T05:51:21.969Z,5.62
2024-03-08T05:52:21.737Z,5.62
2024-03-08T05:53:21.882Z,5.62
2024-03-08T05:54:23.919Z,5.62
2024-03-08T05:55:22.272Z,5.62
2024-03-08T05:56:21.697Z,11.25
2024-03-08T05:57:21.746Z,11.25
2024-03-08T05:58:21.700Z,11.25
2024-03-08T05:59:21.581Z,11.25
2024-03-08T06:00:21.756Z,11.25
2024-03-08T06:01:21.621Z,11.25
2024-03-08T06:02:22.824Z,11.25
2024-03-08T06:03:21.632Z,11.25
2024-03-08T06:04:21.739Z,11.25
2024-03-08T06:05:21.540Z,16.88
2024-03-08T06:06:21.678Z,16.88
2024-03-08T06:07:21.507Z,16.88
2024-03-08T06:08:21.892Z,16.88
2024-03-08T06:09:21.504Z,16.88
2024-03-08T06:10:21.595Z,16.88
2024-03-08T06:11:21.655Z,22.50
2024-03-08T06:12:21.788Z,22.50
2024-03-08T06:13:21.416Z,22.50
2024-03-08T06:14:21.633Z,28.12
2024-03-08T06:15:21.404Z,28.12
2024-03-08T06:16:21.432Z,28.12
2024-03-08T06:17:21.371Z,33.75
2024-03-08T06:18:21.562Z,33.75
2024-03-08T06:19:21.346Z,39.38
2024-03-08T06:20:21.481Z,39.38
2024-03-08T06:21:21.517Z,39.38
2024-03-08T06:22:21.492Z,39.38
2024-03-08T06:23:21.310Z,45.00
2024-03-08T06:24:21.568Z,45.00
2024-03-08T06:25:21.308Z,45.00
2024-03-08T06:26:21.514Z,50.62
2024-03-08T06:27:21.312Z,50.62
2024-03-08T06:28:21.377Z,50.62
2024-03-08T06:29:21.212Z,50.62
2024-03-08T06:30:21.385Z,50.62
2024-03-08T06:31:21.206Z,56.25
2024-03-08T06:32:21.357Z,56.25
2024-03-08T06:33:21.280Z,61.88
2024-03-08T06:34:21.309Z,61.88
2024-03-08T06:35:21.162Z,67.50
2024-03-08T06:36:21.300Z,73.12
2024-03-08T06:37:21.124Z,73.12
2024-03-08T06:38:21.270Z,73.12
2024-03-08T06:39:21.142Z,67.50
2024-03-08T06:40:21.187Z,73.12
2024-03-08T06:41:21.125Z,73.12
2024-03-08T06:42:21.297Z,78.75
2024-03-08T06:43:21.147Z,78.75
2024-03-08T06:44:21.214Z,78.75
2024-03-08T06:45:21.126Z,84.38
2024-03-08T06:46:21.209Z,84.38
2024-03-08T06:47:21.028Z,90.00
2024-03-08T06:48:21.170Z,90.00
2024-03-08T06:49:20.986Z,95.62
2024-03-08T06:50:21.119Z,90.00
2024-03-08T06:51:20.995Z,95.62
2024-03-08T06:52:21.086Z,101.25
2024-03-08T06:53:23.930Z,101.25
2024-03-08T06:54:20.940Z,101.25
2024-03-08T06:55:21.120Z,101.25
2024-03-08T06:56:20.924Z,106.88
2024-03-08T06:57:20.991Z,106.88
2024-03-08T06:58:20.838Z,106.88
2024-03-08T06:59:21.922Z,106.88
2024-03-08T07:00:27.466Z,112.50
2024-03-08T07:01:21.734Z,112.50
2024-03-08T07:02:20.806Z,118.12
2024-03-08T07:03:20.880Z,118.12
2024-03-08T07:04:20.773Z,118.12
2024-03-08T07:05:20.799Z,123.75
2024-03-08T07:06:20.810Z,123.75
2024-03-08T07:07:20.757Z,129.38
2024-03-08T07:08:20.739Z,123.75
2024-03-08T07:09:20.857Z,123.75
2024-03-08T07:10:20.718Z,129.38
2024-03-08T07:11:20.720Z,129.38
2024-03-08T07:12:20.693Z,123.75
2024-03-08T07:13:20.715Z,129.38
2024-03-08T07:14:20.763Z,129.38
2024-03-08T07:15:20.907Z,135.00
2024-03-08T07:16:20.632Z,135.00
2024-03-08T07:17:20.640Z,135.00
2024-03-08T07:18:20.830Z,135.00
2024-03-08T07:19:20.654Z,135.00
2024-03-08T07:20:20.597Z,140.62
2024-03-08T07:21:20.717Z,146.25
2024-03-08T07:22:20.524Z,146.25
2024-03-08T07:23:20.670Z,151.88
2024-03-08T07:24:20.630Z,157.50
2024-03-08T07:25:20.559Z,157.50
2024-03-08T07:26:20.568Z,163.12
2024-03-08T07:27:20.544Z,163.12
2024-03-08T07:28:20.463Z,163.12
2024-03-08T07:29:20.468Z,168.75
2024-03-08T07:30:20.637Z,168.75
2024-03-08T07:31:20.468Z,163.12
2024-03-08T07:32:20.425Z,163.12
2024-03-08T07:33:20.513Z,157.50
2024-03-08T07:34:20.409Z,157.50
2024-03-08T07:35:20.412Z,151.88
2024-03-08T07:36:20.425Z,151.88
2024-03-08T07:37:20.438Z,157.50
2024-03-08T07:38:20.328Z,157.50
2024-03-08T07:39:20.413Z,157.50
2024-03-08T07:40:21.929Z,157.50
2024-03-08T07:41:20.312Z,157.50
2024-03-08T07:42:20.277Z,163.12
2024-03-08T07:43:20.324Z,168.75
2024-03-08T07:44:20.298Z,174.38
2024-03-08T07:45:20.304Z,185.62
2024-03-08T07:46:20.258Z,185.62
2024-03-08T07:47:21.770Z,196.88
2024-03-08T07:48:20.266Z,202.50
2024-03-08T07:49:20.217Z,208.12
2024-03-08T07:50:20.227Z,208.12
2024-03-08T07:51:20.293Z,219.38
2024-03-08T07:52:20.164Z,225.00
2024-03-08T07:53:20.182Z,230.62
2024-03-08T07:54:20.215Z,236.25
2024-03-08T07:55:20.142Z,247.50
2024-03-08T07:56:20.109Z,253.12
2024-03-08T07:57:20.113Z,253.12
2024-03-08T07:58:20.164Z,253.12
2024-03-08T07:59:20.109Z,253.12
2024-03-08T08:00:20.081Z,253.12
2024-03-08T08:01:20.156Z,258.75
2024-03-08T08:02:20.121Z,264.38
2024-03-08T08:03:20.050Z,270.00
2024-03-08T08:04:20.098Z,270.00
2024-03-08T08:05:20.010Z,270.00
2024-03-08T08:06:20.021Z,275.62
2024-03-08T08:07:20.011Z,275.62
2024-03-08T08:08:19.969Z,270.00
2024-03-08T08:09:19.953Z,264.38
2024-03-08T08:10:19.994Z,264.38
2024-03-08T08:11:20.010Z,264.38
2024-03-08T08:12:19.977Z,264.38
2024-03-08T08:13:19.951Z,264.38
2024-03-08T08:14:19.979Z,258.75
2024-03-08T08:15:19.936Z,258.75
2024-03-08T08:16:20.009Z,264.38
2024-03-08T08:17:19.921Z,270.00
2024-03-08T08:18:19.862Z,270.00
2024-03-08T08:19:19.929Z,264.38
2024-03-08T08:20:19.891Z,264.38
2024-03-08T08:21:20.023Z,264.38
2024-03-08T08:22:19.841Z,264.38
2024-03-08T08:23:19.847Z,264.38
2024-03-08T08:24:19.835Z,275.62
2024-03-08T08:25:19.800Z,275.62
2024-03-08T08:26:19.743Z,275.62
2024-03-08T08:27:19.833Z,281.25
2024-03-08T08:28:19.890Z,286.88
2024-03-08T08:29:19.794Z,292.50
2024-03-08T08:30:19.746Z,292.50
2024-03-08T08:31:19.746Z,298.12
2024-03-08T08:32:19.662Z,298.12
2024-03-08T08:33:19.798Z,292.50
2024-03-08T08:34:19.696Z,292.50
2024-03-08T08:35:20.014Z,303.75
2024-03-08T08:36:19.668Z,303.75
2024-03-08T08:37:21.098Z,309.38
2024-03-08T08:38:19.631Z,309.38
2024-03-08T08:39:19.669Z,309.38
2024-03-08T08:40:19.722Z,309.38
2024-03-08T08:41:19.638Z,303.75
2024-03-08T08:42:19.601Z,309.38
2024-03-08T08:43:19.643Z,309.38
2024-03-08T08:44:19.705Z,309.38
2024-03-08T08:45:23.436Z,303.75
2024-03-08T08:46:21.161Z,298.12
2024-03-08T08:47:19.580Z,292.50
2024-03-08T08:48:19.491Z,292.50
2024-03-08T08:49:19.480Z,298.12
2024-03-08T08:50:19.451Z,298.12
2024-03-08T08:51:19.476Z,298.12
2024-03-08T08:52:19.482Z,298.12
2024-03-08T08:53:19.449Z,303.75
2024-03-08T08:54:19.393Z,309.38
2024-03-08T08:55:19.434Z,315.00
2024-03-08T08:56:19.348Z,320.62
2024-03-08T08:57:19.432Z,326.25
2024-03-08T08:58:19.428Z,326.25
2024-03-08T08:59:23.174Z,331.88
2024-03-08T09:00:19.300Z,331.88
2024-03-08T09:01:19.405Z,326.25
2024-03-08T09:02:19.498Z,331.88
2024-03-08T09:03:19.281Z,343.12
2024-03-08T09:04:19.292Z,360.00
2024-03-08T09:05:19.289Z,376.88
2024-03-08T09:06:19.259Z,376.88
2024-03-08T09:07:19.319Z,376.88
2024-03-08T09:08:19.235Z,388.12
2024-03-08T09:09:19.197Z,393.75
2024-03-08T09:10:19.257Z,393.75
2024-03-08T09:11:19.216Z,393.75
2024-03-08T09:12:19.244Z,399.38
2024-03-08T09:13:28.443Z,405.00
2024-03-08T09:14:19.155Z,393.75
2024-03-08T09:15:19.228Z,388.12
2024-03-08T09:16:19.237Z,388.12
2024-03-08T09:17:19.110Z,382.50
2024-03-08T09:18:19.132Z,376.88
2024-03-08T09:19:19.182Z,388.12
2024-03-08T09:20:19.104Z,399.38
2024-03-08T09:21:20.250Z,399.38
2024-03-08T09:22:19.053Z,416.25
2024-03-08T09:23:19.033Z,427.50
2024-03-08T09:24:19.016Z,433.12
2024-03-08T09:25:19.096Z,438.75
2024-03-08T09:26:25.879Z,444.38
2024-03-08T09:27:19.061Z,450.00
2024-03-08T09:28:19.051Z,455.62
2024-03-08T09:29:18.993Z,466.88
2024-03-08T09:30:19.083Z,466.88
2024-03-08T09:31:18.963Z,472.50
2024-03-08T09:32:18.967Z,466.88
2024-03-08T09:33:18.951Z,455.62
2024-03-08T09:34:22.840Z,455.62
2024-03-08T09:35:18.939Z,466.88
2024-03-08T09:36:18.955Z,466.88
2024-03-08T09:37:18.944Z,472.50
2024-03-08T09:38:18.899Z,466.88
2024-03-08T09:39:18.849Z,483.75
2024-03-08T09:40:18.865Z,506.25
2024-03-08T09:41:18.903Z,500.62
2024-03-08T09:42:18.815Z,489.38
2024-03-08T09:43:20.381Z,472.50
2024-03-08T09:44:18.738Z,461.25
2024-03-08T09:45:18.789Z,444.38
2024-03-08T09:46:18.736Z,438.75
2024-03-08T09:47:18.730Z,433.12
2024-03-08T09:48:18.706Z,438.75
2024-03-08T09:49:18.752Z,433.12
2024-03-08T09:50:19.523Z,427.50
2024-03-08T09:51:18.677Z,427.50
2024-03-08T09:52:18.660Z,433.12
2024-03-08T09:53:18.850Z,421.88
2024-03-08T09:54:23.280Z,421.88
2024-03-08T09:55:18.648Z,427.50
2024-03-08T09:56:18.624Z,438.75
2024-03-08T09:57:20.970Z,450.00
2024-03-08T09:58:18.815Z,461.25
2024-03-08T09:59:18.614Z,466.88
2024-03-08T10:00:18.649Z,483.75
2024-03-08T10:01:18.641Z,495.00
2024-03-08T10:02:18.640Z,495.00
2024-03-08T10:03:18.570Z,495.00
2024-03-08T10:04:18.637Z,500.62
2024-03-08T10:05:18.544Z,506.25
2024-03-08T10:06:18.578Z,511.88
2024-03-08T10:07:18.609Z,528.75
2024-03-08T10:08:18.516Z,545.62
2024-03-08T10:09:18.445Z,568.12
2024-03-08T10:10:18.500Z,590.62
2024-03-08T10:11:18.634Z,601.88
2024-03-08T10:12:18.385Z,601.88
2024-03-08T10:13:18.551Z,607.50
2024-03-08T10:14:19.577Z,613.12
2024-03-08T10:15:18.494Z,635.62
2024-03-08T10:16:18.432Z,646.88
2024-03-08T10:17:18.410Z,669.38
2024-03-08T10:18:18.363Z,675.00
2024-03-08T10:19:18.436Z,675.00
2024-03-08T10:20:18.476Z,680.62
2024-03-08T10:21:19.189Z,680.62
2024-03-08T10:22:18.300Z,686.25
2024-03-08T10:23:18.307Z,703.12
2024-03-08T10:24:18.249Z,703.12
2024-03-08T10:25:18.248Z,714.38
2024-03-08T10:26:18.196Z,725.62
2024-03-08T10:27:18.241Z,736.88
2024-03-08T10:28:18.195Z,748.12
2024-03-08T10:29:18.193Z,742.50
2024-03-08T10:30:18.209Z,742.50
2024-03-08T10:31:19.481Z,736.88
2024-03-08T10:32:18.182Z,736.88
2024-03-08T10:33:18.209Z,765.00
2024-03-08T10:34:18.146Z,770.62
2024-03-08T10:35:18.236Z,753.75
2024-03-08T10:36:18.157Z,753.75
2024-03-08T10:37:18.160Z,742.50
2024-03-08T10:38:18.108Z,748.12
2024-03-08T10:39:18.100Z,770.62
2024-03-08T10:40:18.193Z,770.62
2024-03-08T10:41:18.609Z,759.38
2024-03-08T10:42:19.248Z,770.62
2024-03-08T10:43:18.451Z,798.75
2024-03-08T10:44:18.159Z,838.12
2024-03-08T10:45:18.031Z,866.25
2024-03-08T10:46:24.371Z,894.38
2024-03-08T10:47:17.964Z,928.12
2024-03-08T10:48:18.041Z,956.25
2024-03-08T10:49:17.988Z,1012.50
2024-03-08T10:50:18.026Z,1102.50
2024-03-08T10:51:17.915Z,1192.50
2024-03-08T10:52:18.046Z,1316.25
2024-03-08T10:53:18.006Z,1569.38
2024-03-08T10:54:17.855Z,1659.38
2024-03-08T10:55:17.893Z,1575.00
2024-03-08T10:56:17.857Z,1940.62
2024-03-08T10:57:17.889Z,2013.75
2024-03-08T10:58:17.952Z,2137.50
2024-03-08T10:59:17.871Z,1558.12
2024-03-08T11:00:17.856Z,1271.25
2024-03-08T11:01:17.871Z,1130.62
2024-03-08T11:02:17.934Z,939.38
2024-03-08T11:03:17.757Z,928.12
2024-03-08T11:04:17.808Z,1237.50
2024-03-08T11:05:17.709Z,2441.25
2024-03-08T11:06:17.853Z,1777.50
2024-03-08T11:07:17.856Z,1513.12
2024-03-08T11:08:17.692Z,1760.62
2024-03-08T11:09:17.630Z,1895.62
2024-03-08T11:10:17.685Z,1243.12
2024-03-08T11:11:17.703Z,1406.25
2024-03-08T11:12:17.653Z,1383.75
2024-03-08T11:13:17.621Z,1316.25
2024-03-08T11:14:17.885Z,1968.75
2024-03-08T11:15:17.561Z,1153.12
2024-03-08T11:16:17.652Z,1203.75
2024-03-08T11:17:19.242Z,2660.62
2024-03-08T11:18:17.559Z,1530.00
2024-03-08T11:19:17.566Z,1321.88
2024-03-08T11:20:17.610Z,1428.75
2024-03-08T11:21:17.489Z,1170.00
2024-03-08T11:22:17.546Z,1254.38
2024-03-08T11:23:17.467Z,1293.75
2024-03-08T11:24:17.518Z,1890.00
2024-03-08T11:25:17.553Z,1434.38
2024-03-08T11:26:17.454Z,1490.62
2024-03-08T11:27:17.409Z,1417.50
2024-03-08T11:28:17.593Z,1248.75
2024-03-08T11:29:17.414Z,1198.12
2024-03-08T11:30:19.010Z,1091.25
2024-03-08T11:31:17.355Z,1063.12
2024-03-08T11:32:17.364Z,1456.88
2024-03-08T11:33:17.397Z,1035.00
2024-03-08T11:34:17.461Z,2047.50
2024-03-08T11:35:17.297Z,1327.50
2024-03-08T11:36:17.304Z,2154.38
2024-03-08T11:37:17.325Z,1501.88
2024-03-08T11:38:17.285Z,2655.00
2024-03-08T11:39:17.274Z,2255.62
2024-03-08T11:40:17.415Z,3178.12
2024-03-08T11:41:19.201Z,2053.12
2024-03-08T11:42:17.227Z,1400.62
2024-03-08T11:43:17.196Z,2418.75
2024-03-08T11:44:17.337Z,3200.62
2024-03-08T11:45:17.202Z,2941.88
2024-03-08T11:46:30.125Z,3076.88
2024-03-08T11:47:17.211Z,3088.12
2024-03-08T11:48:17.381Z,3195.00
2024-03-08T11:49:17.131Z,2446.88
2024-03-08T11:50:17.236Z,2576.25
2024-03-08T11:51:17.091Z,2115.00
2024-03-08T11:52:17.303Z,2857.50
2024-03-08T11:53:17.078Z,2733.75
2024-03-08T11:54:17.122Z,2761.88
2024-03-08T11:55:17.076Z,2705.62
2024-03-08T11:56:17.259Z,2896.88
2024-03-08T11:57:17.068Z,2176.88
2024-03-08T11:58:17.123Z,2244.38
2024-03-08T11:59:17.023Z,2930.62
2024-03-08T12:00:17.173Z,2896.88
2024-03-08T12:01:17.078Z,2289.38
2024-03-08T12:02:17.118Z,2851.88
2024-03-08T12:03:16.949Z,2739.38
2024-03-08T12:04:17.034Z,2790.00
2024-03-08T12:05:16.936Z,3065.62
2024-03-08T12:06:17.033Z,2784.38
2024-03-08T12:07:16.956Z,3043.12
2024-03-08T12:08:17.088Z,3105.00
2024-03-08T12:09:16.858Z,3183.75
2024-03-08T12:10:16.982Z,3296.25
2024-03-08T12:11:16.923Z,3054.38
2024-03-08T12:12:17.932Z,3161.25
2024-03-08T12:13:16.954Z,2475.00
2024-03-08T12:14:16.917Z,2638.12
2024-03-08T12:15:16.775Z,2902.50
2024-03-08T12:16:17.005Z,3166.88
2024-03-08T12:17:16.760Z,3155.62
2024-03-08T12:18:16.886Z,3189.38
2024-03-08T12:19:16.842Z,3273.75
2024-03-08T12:20:16.794Z,3256.88
2024-03-08T12:21:16.734Z,3330.00
2024-03-08T12:22:16.984Z,3240.00
2024-03-08T12:23:16.709Z,3093.75
2024-03-08T12:24:16.823Z,3127.50
2024-03-08T12:25:16.695Z,3161.25
2024-03-08T12:26:16.851Z,3234.38
2024-03-08T12:27:16.660Z,3307.50
2024-03-08T12:28:17.006Z,3431.25
2024-03-08T12:29:16.666Z,3498.75
2024-03-08T12:30:16.650Z,3560.62
2024-03-08T12:31:16.634Z,3543.75
2024-03-08T12:32:16.679Z,3583.12
2024-03-08T12:33:16.729Z,3583.12
2024-03-08T12:34:16.718Z,3600.00
2024-03-08T12:35:16.560Z,3425.62
2024-03-08T12:36:16.646Z,3290.62
2024-03-08T12:37:16.563Z,3616.88
2024-03-08T12:38:16.767Z,3825.00
2024-03-08T12:39:16.473Z,3656.25
2024-03-08T12:40:17.831Z,3560.62
2024-03-08T12:41:17.511Z,3633.75
2024-03-08T12:42:16.523Z,3690.00
2024-03-08T12:43:17.240Z,3656.25
2024-03-08T12:44:16.477Z,3673.12
2024-03-08T12:45:16.432Z,3785.62
2024-03-08T12:46:16.469Z,3763.12
2024-03-08T12:47:16.492Z,3841.88
2024-03-08T12:48:16.406Z,3780.00
2024-03-08T12:49:16.589Z,3701.25